Half Day, Illinois
Current Conditions -  °F | °C
As of 2:52 PM on Monday 22 Dec 2014 (Local Time) from KPWK Reporting Station
Light Rain Light Rain  
Wind Chill: 30°   Ceiling: 700
Heat Index: 36°   Visibility: 2mi
Dew Point: 33°   Wind: 7mph
Humidity: 89%   Direction: 100°E
Pressure: 29.74"   Gusts: NA
Location:  42.1941°N, 87.9317°W
Report Text: KPWK 222052Z 10006KT 2SM -RA BR OVC007 02/01 A2974 RMK AO2 SLP076 P0003 60007 I3000 T00220006 56015
Loading
Personal Weather Stations






























Interactive Weather Map New forecast layout! Learn more

10-Day Weather Forecast

Advertisements
Track Severe Weather on mobile